Time;durP1;ratioP1;P1;durP2;ratioP2;P2;SDS_P1;SDS_P2;PMS_P1;PMS_P2;Temp;Humidity;BMP_temperature;BMP_pressure;BME280_temperature;BME280_humidity;BME280_pressure;Samples;Min_cycle;Max_cycle;Signal;HPM_P1;HPM_P2
2023/06/26 00:02:21;;;;;;;2.15;2.05;;;;;;;;;;5044762;28;20055;-61
2023/06/26 00:04:47;;;;;;;2.00;1.90;;;;;;;;;;5046289;28;20460;-61
2023/06/26 00:07:13;;;;;;;1.98;1.88;;;;;;;;;;5045485;28;20128;-61
2023/06/26 00:09:39;;;;;;;2.03;1.92;;;;;;;;;;5044805;28;20045;-61
2023/06/26 00:12:05;;;;;;;1.80;1.70;;;;;;;;;;5045267;28;20132;-61
2023/06/26 00:14:31;;;;;;;1.95;1.85;;;;;;;;;;5045141;28;20049;-61
2023/06/26 00:16:57;;;;;;;2.15;2.05;;;;;;;;;;5044830;28;20049;-61
2023/06/26 00:19:23;;;;;;;2.15;2.03;;;;;;;;;;5045566;28;20099;-61
2023/06/26 00:21:49;;;;;;;2.17;1.98;;;;;;;;;;5044759;28;20534;-61
2023/06/26 00:24:15;;;;;;;2.00;1.90;;;;;;;;;;5045601;28;20485;-61
2023/06/26 00:26:41;;;;;;;2.35;2.15;;;;;;;;;;5045655;28;20045;-61
2023/06/26 00:29:07;;;;;;;2.10;2.00;;;;;;;;;;5044364;28;20432;-61
2023/06/26 00:31:35;;;;;;;2.33;2.13;;;;;;;;;;5045373;28;20037;-61
2023/06/26 00:34:01;;;;;;;2.60;2.40;;;;;;;;;;5043941;28;20055;-61
2023/06/26 00:36:27;;;;;;;2.15;2.00;;;;;;;;;;5043997;28;20048;-61
2023/06/26 00:38:53;;;;;;;2.47;2.28;;;;;;;;;;5045310;28;20045;-61
2023/06/26 00:41:19;;;;;;;2.22;2.00;;;;;;;;;;5045230;28;20041;-61
2023/06/26 00:43:46;;;;;;;2.92;2.72;;;;;;;;;;5045228;28;20049;-61
2023/06/26 00:46:15;;;;;;;2.38;2.28;;;;;;;;;;5044548;28;20059;-61
2023/06/26 00:48:42;;;;;;;2.40;2.20;;;;;;;;;;5044883;28;20052;-61
2023/06/26 00:51:08;;;;;;;2.45;2.28;;;;;;;;;;5043706;28;20544;-61
2023/06/26 00:53:34;;;;;;;2.80;2.60;;;;;;;;;;5045063;28;20041;-61
2023/06/26 00:56:01;;;;;;;2.53;2.33;;;;;;;;;;5044546;28;20052;-61
2023/06/26 00:58:27;;;;;;;2.65;2.40;;;;;;;;;;5043528;28;20048;-61
2023/06/26 01:00:54;;;;;;;2.60;2.40;;;;;;;;;;5044470;28;20041;-61
2023/06/26 01:03:23;;;;;;;2.45;2.25;;;;;;;;;;5044289;28;20422;-61
2023/06/26 01:05:51;;;;;;;3.10;2.80;;;;;;;;;;5044268;28;20045;-61
2023/06/26 01:08:18;;;;;;;2.58;2.38;;;;;;;;;;5044771;28;20067;-61
2023/06/26 01:10:44;;;;;;;2.25;2.13;;;;;;;;;;5045075;28;20102;-61
2023/06/26 01:13:10;;;;;;;2.20;2.00;;;;;;;;;;5043194;28;20056;-61
2023/06/26 01:15:36;;;;;;;2.50;2.30;;;;;;;;;;5044252;28;20216;-61
2023/06/26 01:18:03;;;;;;;2.72;2.53;;;;;;;;;;5044208;28;20059;-61
2023/06/26 01:20:32;;;;;;;2.70;2.05;;;;;;;;;;5043433;28;20057;-61
2023/06/26 01:23:05;;;;;;;2.25;2.10;;;;;;;;;;5044059;28;20049;-61
2023/06/26 01:25:49;;;;;;;2.05;1.95;;;;;;;;;;5043166;28;20131;-61
2023/06/26 01:28:17;;;;;;;1.77;1.67;;;;;;;;;;5044378;28;20045;-61
2023/06/26 01:30:44;;;;;;;1.80;1.70;;;;;;;;;;5044121;28;20060;-61
2023/06/26 01:33:11;;;;;;;1.90;1.80;;;;;;;;;;5043164;28;20102;-61
2023/06/26 01:35:37;;;;;;;1.88;1.77;;;;;;;;;;5044604;28;20451;-61
2023/06/26 01:38:13;;;;;;;2.03;1.92;;;;;;;;;;5043943;28;20041;-61
2023/06/26 01:40:39;;;;;;;2.08;1.95;;;;;;;;;;5043456;28;20079;-61
2023/06/26 01:43:06;;;;;;;2.53;2.28;;;;;;;;;;5043592;28;20187;-61
2023/06/26 01:45:32;;;;;;;2.80;2.60;;;;;;;;;;5025630;28;20070;-61
2023/06/26 01:48:01;;;;;;;2.83;2.63;;;;;;;;;;5043170;28;20037;-61
2023/06/26 01:50:30;;;;;;;2.75;2.55;;;;;;;;;;5043429;28;20045;-61
2023/06/26 01:53:02;;;;;;;2.17;2.08;;;;;;;;;;5043398;28;20508;-61
2023/06/26 01:55:28;;;;;;;;;;;;;;;;;;5043070;28;20045;-61
2023/06/26 01:57:56;;;;;;;2.22;2.13;;;;;;;;;;5043497;28;19920;-61
2023/06/26 02:00:23;;;;;;;2.55;2.35;;;;;;;;;;5042665;28;20049;-61
2023/06/26 02:02:49;;;;;;;2.42;2.22;;;;;;;;;;5043835;28;20044;-61
2023/06/26 02:05:15;;;;;;;2.45;2.30;;;;;;;;;;5043596;28;20041;-61
2023/06/26 02:07:41;;;;;;;2.22;2.03;;;;;;;;;;5042989;28;20048;-61
2023/06/26 02:10:08;;;;;;;2.42;2.28;;;;;;;;;;5043199;28;20044;-61
2023/06/26 02:12:35;;;;;;;2.20;2.10;;;;;;;;;;5043655;28;20052;-61
2023/06/26 02:15:02;;;;;;;2.03;1.90;;;;;;;;;;5024780;28;20044;-61
2023/06/26 02:17:28;;;;;;;2.22;2.03;;;;;;;;;;5043154;28;20033;-61
2023/06/26 02:19:54;;;;;;;2.20;2.00;;;;;;;;;;5043465;28;20041;-61
2023/06/26 02:22:20;;;;;;;2.00;1.90;;;;;;;;;;5042431;28;20554;-60
2023/06/26 02:24:46;;;;;;;1.73;1.63;;;;;;;;;;5043638;28;20045;-60
2023/06/26 02:27:12;;;;;;;1.75;1.65;;;;;;;;;;5043203;28;20092;-61
2023/06/26 02:29:39;;;;;;;2.28;2.08;;;;;;;;;;5042740;28;20835;-61
2023/06/26 02:32:05;;;;;;;1.80;1.70;;;;;;;;;;5043162;28;20044;-61
2023/06/26 02:34:31;;;;;;;1.80;1.70;;;;;;;;;;5042671;28;20048;-61
2023/06/26 02:36:58;;;;;;;1.83;1.73;;;;;;;;;;5042142;28;20396;-61
2023/06/26 02:39:24;;;;;;;2.08;1.98;;;;;;;;;;5042518;28;20591;-61
2023/06/26 02:41:50;;;;;;;2.10;2.00;;;;;;;;;;5042955;28;20132;-61
2023/06/26 02:44:16;;;;;;;1.77;1.67;;;;;;;;;;5042440;28;20072;-61
2023/06/26 02:46:42;;;;;;;1.67;1.58;;;;;;;;;;5043312;28;20106;-61
2023/06/26 02:49:08;;;;;;;2.15;2.00;;;;;;;;;;5042499;28;20489;-60
2023/06/26 02:51:34;;;;;;;1.88;1.77;;;;;;;;;;5042313;28;20045;-60
2023/06/26 02:54:00;;;;;;;2.25;2.08;;;;;;;;;;5042906;28;20053;-61
2023/06/26 02:56:29;;;;;;;2.15;2.05;;;;;;;;;;5042702;28;20392;-61
2023/06/26 02:58:56;;;;;;;1.95;1.85;;;;;;;;;;5046576;28;20052;-61
2023/06/26 03:01:22;;;;;;;2.30;2.10;;;;;;;;;;5046678;28;20048;-61
2023/06/26 03:03:48;;;;;;;2.20;2.10;;;;;;;;;;5046947;28;20393;-61
2023/06/26 03:06:14;;;;;;;2.33;2.15;;;;;;;;;;5029075;28;20146;-61
2023/06/26 03:08:41;;;;;;;2.45;1.88;;;;;;;;;;5046593;28;20040;-61
2023/06/26 03:11:07;;;;;;;2.75;2.55;;;;;;;;;;5045518;28;20096;-61
2023/06/26 03:13:35;;;;;;;2.53;2.33;;;;;;;;;;5046788;28;20052;-61
2023/06/26 03:16:01;;;;;;;2.90;2.70;;;;;;;;;;5046898;28;20044;-61
2023/06/26 03:18:27;;;;;;;2.83;2.63;;;;;;;;;;5045616;28;20475;-61
2023/06/26 03:20:56;;;;;;;3.33;3.13;;;;;;;;;;5046484;28;20041;-61
2023/06/26 03:23:23;;;;;;;3.17;2.97;;;;;;;;;;5046603;28;20335;-61
2023/06/26 03:25:49;;;;;;;3.30;3.10;;;;;;;;;;5046384;28;20045;-61
2023/06/26 03:28:15;;;;;;;2.60;2.40;;;;;;;;;;5046803;28;20048;-61
2023/06/26 03:30:41;;;;;;;2.50;2.30;;;;;;;;;;5046593;28;20045;-61
2023/06/26 03:33:07;;;;;;;2.50;2.30;;;;;;;;;;5045083;28;20583;-61
2023/06/26 03:35:33;;;;;;;2.13;2.03;;;;;;;;;;5046316;28;20044;-61
2023/06/26 03:38:00;;;;;;;2.80;2.60;;;;;;;;;;5046250;28;20083;-61
2023/06/26 03:40:26;;;;;;;2.85;2.65;;;;;;;;;;5045510;28;20048;-61
2023/06/26 03:42:53;;;;;;;3.83;3.08;;;;;;;;;;5046566;28;20440;-61
2023/06/26 03:45:19;;;;;;;2.70;2.50;;;;;;;;;;5046180;28;20049;-61
2023/06/26 03:47:48;;;;;;;3.20;3.00;;;;;;;;;;5045956;28;20049;-61
2023/06/26 03:50:15;;;;;;;2.08;1.98;;;;;;;;;;5046078;28;20052;-61
2023/06/26 03:52:41;;;;;;;4.38;3.30;;;;;;;;;;5046052;28;20045;-61
2023/06/26 03:55:07;;;;;;;3.10;2.90;;;;;;;;;;5045191;28;20045;-61
2023/06/26 03:57:33;;;;;;;3.10;2.88;;;;;;;;;;5045786;28;20083;-61
2023/06/26 03:59:59;;;;;;;3.55;3.25;;;;;;;;;;5044881;28;20459;-61
2023/06/26 04:02:25;;;;;;;3.40;3.10;;;;;;;;;;5045346;28;20330;-61
2023/06/26 04:04:52;;;;;;;3.08;2.88;;;;;;;;;;5045483;28;20052;-61
2023/06/26 04:07:18;;;;;;;3.55;3.35;;;;;;;;;;5045370;28;20049;-61
2023/06/26 04:09:44;;;;;;;3.20;3.00;;;;;;;;;;5046521;28;20052;-61
2023/06/26 04:12:10;;;;;;;3.67;3.47;;;;;;;;;;5045405;28;20140;-61
2023/06/26 04:14:36;;;;;;;3.40;3.20;;;;;;;;;;5045033;28;20381;-61
2023/06/26 04:17:03;;;;;;;2.58;2.40;;;;;;;;;;5045645;28;20045;-61
2023/06/26 04:19:29;;;;;;;3.65;3.35;;;;;;;;;;5044962;28;20052;-61
2023/06/26 04:21:56;;;;;;;4.28;3.80;;;;;;;;;;5045107;28;20087;-61
2023/06/26 04:24:22;;;;;;;3.45;3.15;;;;;;;;;;5045128;28;20064;-61
2023/06/26 04:26:48;;;;;;;3.78;3.47;;;;;;;;;;5045883;28;20159;-61
2023/06/26 04:29:14;;;;;;;2.90;2.70;;;;;;;;;;5044147;28;20568;-61
2023/06/26 04:31:40;;;;;;;2.70;2.50;;;;;;;;;;5045195;28;20067;-61
2023/06/26 04:34:06;;;;;;;3.20;2.90;;;;;;;;;;5044871;28;20041;-61
2023/06/26 04:36:33;;;;;;;3.50;3.20;;;;;;;;;;5044716;28;20045;-61
2023/06/26 04:38:59;;;;;;;3.88;3.47;;;;;;;;;;5045228;28;20441;-61
2023/06/26 04:41:25;;;;;;;3.10;2.90;;;;;;;;;;5044673;28;20048;-60
2023/06/26 04:43:51;;;;;;;3.60;3.30;;;;;;;;;;5044622;28;20052;-61
2023/06/26 04:46:17;;;;;;;3.10;2.88;;;;;;;;;;5045056;28;20040;-61
2023/06/26 04:48:47;;;;;;;4.00;3.45;;;;;;;;;;5044717;28;20049;-61
2023/06/26 04:51:13;;;;;;;3.83;3.47;;;;;;;;;;5043688;28;20489;-61
2023/06/26 04:53:39;;;;;;;4.05;3.50;;;;;;;;;;5044531;28;20053;-61
2023/06/26 04:56:05;;;;;;;3.97;3.65;;;;;;;;;;5044584;28;20103;-61
2023/06/26 04:58:31;;;;;;;5.30;4.53;;;;;;;;;;5044237;28;20041;-61
2023/06/26 05:00:58;;;;;;;3.72;3.42;;;;;;;;;;5044555;28;20047;-61
2023/06/26 05:03:24;;;;;;;4.18;3.78;;;;;;;;;;5043376;28;20524;-61
2023/06/26 05:05:50;;;;;;;5.82;4.60;;;;;;;;;;5044516;28;20048;-61
2023/06/26 05:08:17;;;;;;;6.03;4.75;;;;;;;;;;5044870;28;20274;-61
2023/06/26 05:10:44;;;;;;;5.95;4.60;;;;;;;;;;5043865;28;20057;-61
2023/06/26 05:13:10;;;;;;;3.80;3.50;;;;;;;;;;5044202;28;20370;-61
2023/06/26 05:15:36;;;;;;;4.00;3.38;;;;;;;;;;5026648;28;20045;-61
2023/06/26 05:18:02;;;;;;;3.92;3.30;;;;;;;;;;5043911;28;20139;-61
2023/06/26 05:20:28;;;;;;;3.50;2.58;;;;;;;;;;5043512;28;20041;-61
2023/06/26 05:22:54;;;;;;;4.22;2.83;;;;;;;;;;5044302;28;20099;-61
2023/06/26 05:25:21;;;;;;;2.83;2.60;;;;;;;;;;5043082;28;20045;-61
2023/06/26 05:27:47;;;;;;;2.95;2.58;;;;;;;;;;5044828;28;20481;-61
2023/06/26 05:30:14;;;;;;;2.25;2.00;;;;;;;;;;5043785;28;20411;-61
2023/06/26 05:32:40;;;;;;;2.67;1.85;;;;;;;;;;5043276;28;20049;-60
2023/06/26 05:35:07;;;;;;;5.97;1.90;;;;;;;;;;5043979;28;20056;-60
2023/06/26 05:37:34;;;;;;;2.42;1.90;;;;;;;;;;5044187;28;20033;-61
2023/06/26 05:40:00;;;;;;;2.17;1.63;;;;;;;;;;5043332;28;20053;-61
2023/06/26 05:42:27;;;;;;;1.60;1.50;;;;;;;;;;5043510;28;20056;-61
2023/06/26 05:44:54;;;;;;;1.63;1.30;;;;;;;;;;5044200;28;20087;-61
2023/06/26 05:47:20;;;;;;;1.67;1.38;;;;;;;;;;5043233;28;20080;-60
2023/06/26 05:49:46;;;;;;;1.98;1.30;;;;;;;;;;5044179;28;20049;-60
2023/06/26 05:52:12;;;;;;;2.63;1.35;;;;;;;;;;5043284;28;20052;-61
2023/06/26 05:54:38;;;;;;;2.28;1.55;;;;;;;;;;5043019;28;20300;-61
2023/06/26 05:57:04;;;;;;;2.88;1.85;;;;;;;;;;5043362;28;20036;-61
2023/06/26 05:59:37;;;;;;;1.90;1.42;;;;;;;;;;5042373;28;20122;-61
2023/06/26 06:02:03;;;;;;;3.80;1.48;;;;;;;;;;5043565;28;20255;-60
2023/06/26 06:04:29;;;;;;;2.88;1.73;;;;;;;;;;5043117;28;20048;-60
2023/06/26 06:06:55;;;;;;;1.52;1.35;;;;;;;;;;5042744;28;20496;-60
2023/06/26 06:09:21;;;;;;;2.22;1.55;;;;;;;;;;5043000;28;20040;-60
2023/06/26 06:11:47;;;;;;;2.03;1.65;;;;;;;;;;5043623;28;20057;-60
2023/06/26 06:14:13;;;;;;;2.67;1.40;;;;;;;;;;5042037;28;20485;-60
2023/06/26 06:16:39;;;;;;;3.63;1.70;;;;;;;;;;5043843;28;20056;-60
2023/06/26 06:19:07;;;;;;;2.55;1.73;;;;;;;;;;5043530;28;20044;-60
2023/06/26 06:21:33;;;;;;;2.95;1.65;;;;;;;;;;5042240;28;20045;-61
2023/06/26 06:24:01;;;;;;;2.28;1.55;;;;;;;;;;5043106;28;20048;-61
2023/06/26 06:26:27;;;;;;;2.13;1.40;;;;;;;;;;5042760;28;20048;-61
2023/06/26 06:28:53;;;;;;;3.15;1.40;;;;;;;;;;5042993;28;20045;-61
2023/06/26 06:31:19;;;;;;;2.83;1.60;;;;;;;;;;5042861;28;20056;-61
2023/06/26 06:33:45;;;;;;;1.48;0.80;;;;;;;;;;5043635;28;20134;-61
2023/06/26 06:36:11;;;;;;;1.88;1.20;;;;;;;;;;5042161;28;20080;-61
2023/06/26 06:38:37;;;;;;;1.23;0.93;;;;;;;;;;5042991;28;20122;-61
2023/06/26 06:41:03;;;;;;;2.25;1.38;;;;;;;;;;5042761;28;20519;-61
2023/06/26 06:43:29;;;;;;;3.88;1.67;;;;;;;;;;5041836;28;20049;-61
2023/06/26 06:45:55;;;;;;;3.10;1.80;;;;;;;;;;5042678;28;20068;-61
2023/06/26 06:48:21;;;;;;;2.65;1.80;;;;;;;;;;5042541;28;20041;-61
2023/06/26 06:50:47;;;;;;;2.88;1.10;;;;;;;;;;5042734;28;20118;-61
2023/06/26 06:53:13;;;;;;;2.55;1.55;;;;;;;;;;5042302;28;20045;-61
2023/06/26 06:55:39;;;;;;;3.42;1.40;;;;;;;;;;5042285;28;20444;-61
2023/06/26 06:58:05;;;;;;;1.25;1.05;;;;;;;;;;5042368;28;20041;-61
2023/06/26 07:00:32;;;;;;;1.90;1.20;;;;;;;;;;5042625;28;20370;-61
2023/06/26 07:03:00;;;;;;;1.58;0.98;;;;;;;;;;5042054;28;20059;-61
2023/06/26 07:05:26;;;;;;;2.35;1.00;;;;;;;;;;5042355;28;20051;-61
2023/06/26 07:07:52;;;;;;;0.80;0.80;;;;;;;;;;5042732;28;20041;-61
2023/06/26 07:10:18;;;;;;;1.42;0.93;;;;;;;;;;5042241;28;20033;-61
2023/06/26 07:12:44;;;;;;;1.10;0.90;;;;;;;;;;5042892;28;20079;-61
2023/06/26 07:15:10;;;;;;;2.40;1.10;;;;;;;;;;5042344;28;20359;-61
2023/06/26 07:17:40;;;;;;;2.33;1.30;;;;;;;;;;5041981;28;20051;-61
2023/06/26 07:20:07;;;;;;;3.53;1.58;;;;;;;;;;5042747;28;20045;-61
2023/06/26 07:22:34;;;;;;;1.52;0.88;;;;;;;;;;5024951;28;20711;-61
2023/06/26 07:25:00;;;;;;;2.35;0.93;;;;;;;;;;5041938;28;20045;-61
2023/06/26 07:27:26;;;;;;;2.85;1.00;;;;;;;;;;5042344;28;20044;-61
2023/06/26 07:29:52;;;;;;;2.05;0.90;;;;;;;;;;5042788;28;20127;-61
2023/06/26 07:32:18;;;;;;;1.20;1.08;;;;;;;;;;5042136;28;20175;-61
2023/06/26 07:34:44;;;;;;;1.38;0.70;;;;;;;;;;5042690;28;20481;-61
2023/06/26 07:37:10;;;;;;;0.80;0.80;;;;;;;;;;5042249;28;20051;-61
2023/06/26 07:39:36;;;;;;;1.55;0.90;;;;;;;;;;5041936;28;20041;-61
2023/06/26 07:42:02;;;;;;;1.73;1.00;;;;;;;;;;5042383;28;20064;-61
2023/06/26 07:44:28;;;;;;;0.80;0.75;;;;;;;;;;5045233;28;20047;-61
2023/06/26 07:46:54;;;;;;;1.20;0.70;;;;;;;;;;5045316;28;20049;-61
2023/06/26 07:49:20;;;;;;;0.70;0.50;;;;;;;;;;5046132;28;20048;-61
2023/06/26 07:51:46;;;;;;;1.83;0.70;;;;;;;;;;5046386;28;20171;-61
2023/06/26 07:54:12;;;;;;;0.63;0.63;;;;;;;;;;5044760;28;20060;-60
2023/06/26 07:56:58;;;;;;;0.70;0.55;;;;;;;;;;5045907;28;20091;-60
2023/06/26 07:59:25;;;;;;;0.57;0.52;;;;;;;;;;5044333;28;20052;-60
2023/06/26 08:01:51;;;;;;;0.93;0.73;;;;;;;;;;5045777;28;20045;-60
2023/06/26 08:04:22;;;;;;;0.70;0.60;;;;;;;;;;5045808;28;20037;-60
2023/06/26 08:06:51;;;;;;;1.00;0.90;;;;;;;;;;5045564;28;20044;-61
2023/06/26 08:09:18;;;;;;;1.45;0.80;;;;;;;;;;5045851;28;20130;-61
2023/06/26 08:11:45;;;;;;;1.13;0.70;;;;;;;;;;5045583;28;20095;-61
2023/06/26 08:14:14;;;;;;;1.15;0.50;;;;;;;;;;5044330;28;20053;-61
2023/06/26 08:16:40;;;;;;;2.03;1.17;;;;;;;;;;5045714;28;20045;-60
2023/06/26 08:19:06;;;;;;;1.60;0.88;;;;;;;;;;5045926;28;20553;-60
2023/06/26 08:21:32;;;;;;;1.48;1.00;;;;;;;;;;5045259;28;20382;-60
2023/06/26 08:23:58;;;;;;;1.48;1.00;;;;;;;;;;5045584;28;20480;-61
2023/06/26 08:26:24;;;;;;;1.27;0.70;;;;;;;;;;5045188;28;20154;-61
2023/06/26 08:28:50;;;;;;;1.08;0.80;;;;;;;;;;5045140;28;20190;-61
2023/06/26 08:31:17;;;;;;;1.23;0.73;;;;;;;;;;5045551;28;20033;-61
2023/06/26 08:33:43;;;;;;;1.83;0.85;;;;;;;;;;5045400;28;20053;-61
2023/06/26 08:36:09;;;;;;;0.80;0.80;;;;;;;;;;5044206;28;20045;-61
2023/06/26 08:38:35;;;;;;;2.13;0.93;;;;;;;;;;5045061;28;20193;-61
2023/06/26 08:41:01;;;;;;;1.60;0.95;;;;;;;;;;5045109;28;20041;-61
2023/06/26 08:43:28;;;;;;;1.45;1.00;;;;;;;;;;5044024;28;20037;-60
2023/06/26 08:45:54;;;;;;;2.88;1.08;;;;;;;;;;5045058;28;20052;-61
2023/06/26 08:48:21;;;;;;;2.28;1.20;;;;;;;;;;5044870;28;20047;-61
2023/06/26 08:50:52;;;;;;;1.42;0.85;;;;;;;;;;5045503;28;20123;-61
2023/06/26 08:53:30;;;;;;;1.48;0.85;;;;;;;;;;5045144;28;20425;-61
2023/06/26 08:55:57;;;;;;;0.90;0.80;;;;;;;;;;5043160;28;20505;-61
2023/06/26 08:58:23;;;;;;;1.42;0.90;;;;;;;;;;5044934;28;20044;-60
2023/06/26 09:00:50;;;;;;;1.15;1.05;;;;;;;;;;5045301;28;20479;-60
2023/06/26 09:03:16;;;;;;;1.08;0.60;;;;;;;;;;5043951;28;20048;-60
2023/06/26 09:05:42;;;;;;;1.02;0.93;;;;;;;;;;5044632;28;20052;-60
2023/06/26 09:08:08;;;;;;;1.85;1.05;;;;;;;;;;5044320;28;20044;-61
2023/06/26 09:10:34;;;;;;;1.17;1.08;;;;;;;;;;5043603;28;20045;-61
2023/06/26 09:13:03;;;;;;;2.17;1.23;;;;;;;;;;5044696;28;20087;-61
2023/06/26 09:15:38;;;;;;;1.23;0.90;;;;;;;;;;5043923;28;20508;-61
2023/06/26 09:18:05;;;;;;;1.67;1.40;;;;;;;;;;5043901;28;20075;-61
2023/06/26 09:20:34;;;;;;;2.05;1.20;;;;;;;;;;5044207;28;20685;-61
2023/06/26 09:23:00;;;;;;;1.70;1.48;;;;;;;;;;5044740;28;20496;-61
2023/06/26 09:25:27;;;;;;;2.00;1.15;;;;;;;;;;5043325;28;20696;-61
2023/06/26 09:27:53;;;;;;;1.10;1.00;;;;;;;;;;5044002;28;20049;-61
2023/06/26 09:30:20;;;;;;;1.52;1.10;;;;;;;;;;5044254;28;20044;-61
2023/06/26 09:32:46;;;;;;;1.38;1.15;;;;;;;;;;5059225;28;20063;-61
2023/06/26 09:35:12;;;;;;;1.38;1.10;;;;;;;;;;5043553;28;20045;-61
2023/06/26 09:37:39;;;;;;;2.30;1.40;;;;;;;;;;5043188;28;20094;-61
2023/06/26 09:40:05;;;;;;;1.38;1.27;;;;;;;;;;5044485;28;20033;-61
2023/06/26 09:42:31;;;;;;;1.65;1.17;;;;;;;;;;5043334;28;20195;-61
2023/06/26 09:44:58;;;;;;;2.47;1.33;;;;;;;;;;5043612;28;20041;-61
2023/06/26 09:47:24;;;;;;;2.20;1.60;;;;;;;;;;5043683;28;20045;-61
2023/06/26 09:49:52;;;;;;;1.23;1.13;;;;;;;;;;5044547;28;20041;-61
2023/06/26 09:52:22;;;;;;;0.90;0.90;;;;;;;;;;5043436;28;20115;-61
2023/06/26 09:54:48;;;;;;;1.40;1.13;;;;;;;;;;5043893;28;20527;-61
2023/06/26 09:57:15;;;;;;;1.40;1.20;;;;;;;;;;5043236;28;20484;-61
2023/06/26 09:59:42;;;;;;;1.27;1.15;;;;;;;;;;5042935;28;20041;-61
2023/06/26 10:02:08;;;;;;;1.15;0.85;;;;;;;;;;5043264;28;20045;-61
2023/06/26 10:04:38;;;;;;;3.30;1.30;;;;;;;;;;5043690;28;20044;-61
2023/06/26 10:07:09;;;;;;;5.90;1.40;;;;;;;;;;5042396;28;20516;-61
2023/06/26 10:09:37;;;;;;;1.67;1.20;;;;;;;;;;5043523;28;20508;-61
2023/06/26 10:12:07;;;;;;;1.67;1.45;;;;;;;;;;5043084;28;20516;-61
2023/06/26 10:14:38;;;;;;;1.83;1.40;;;;;;;;;;5042423;28;20103;-61
2023/06/26 10:17:04;;;;;;;2.97;1.20;;;;;;;;;;5043265;28;20455;-61
2023/06/26 10:19:31;;;;;;;1.33;1.15;;;;;;;;;;5042615;28;20445;-61
2023/06/26 10:21:58;;;;;;;2.03;1.35;;;;;;;;;;5042269;28;20045;-61
2023/06/26 10:24:26;;;;;;;1.05;0.93;;;;;;;;;;5042788;28;20037;-61
2023/06/26 10:26:56;;;;;;;2.55;1.30;;;;;;;;;;5024479;28;20051;-61
2023/06/26 10:29:22;;;;;;;1.42;1.30;;;;;;;;;;5042898;28;20083;-61
2023/06/26 10:31:51;;;;;;;0.80;0.80;;;;;;;;;;5043737;28;20041;-61
2023/06/26 10:34:17;;;;;;;2.25;1.50;;;;;;;;;;5042943;28;20171;-61
2023/06/26 10:36:43;;;;;;;1.77;1.40;;;;;;;;;;5043386;28;20041;-61
2023/06/26 10:39:09;;;;;;;1.25;1.15;;;;;;;;;;5042884;28;20049;-61
2023/06/26 10:41:39;;;;;;;1.10;1.00;;;;;;;;;;5042425;28;20048;-61
2023/06/26 10:44:12;;;;;;;1.67;1.35;;;;;;;;;;5043058;28;20048;-61
2023/06/26 10:46:52;;;;;;;2.75;1.30;;;;;;;;;;5043027;28;20037;-61
2023/06/26 10:49:19;;;;;;;0.98;0.95;;;;;;;;;;5042341;28;20049;-61
2023/06/26 10:51:49;;;;;;;1.95;1.10;;;;;;;;;;5042800;28;20056;-61
2023/06/26 10:54:16;;;;;;;1.27;0.82;;;;;;;;;;5042277;28;20076;-61
2023/06/26 10:56:42;;;;;;;1.40;1.00;;;;;;;;;;5042046;28;20523;-61
2023/06/26 10:59:13;;;;;;;1.17;0.90;;;;;;;;;;5042546;28;20077;-61
2023/06/26 11:01:43;;;;;;;1.60;0.88;;;;;;;;;;5042720;28;20080;-61
2023/06/26 11:04:10;;;;;;;2.05;1.10;;;;;;;;;;5042004;28;20049;-61
2023/06/26 11:06:38;;;;;;;2.08;1.25;;;;;;;;;;5042759;28;20045;-61
2023/06/26 11:09:04;;;;;;;1.73;1.10;;;;;;;;;;5024234;28;20049;-61
2023/06/26 11:11:50;;;;;;;1.65;1.25;;;;;;;;;;5042066;28;20063;-61
2023/06/26 11:14:16;;;;;;;1.77;0.98;;;;;;;;;;5042657;28;20084;-61
2023/06/26 11:16:43;;;;;;;2.92;1.15;;;;;;;;;;5041952;28;20486;-61
2023/06/26 11:19:10;;;;;;;2.47;1.35;;;;;;;;;;5045318;28;20045;-61
2023/06/26 11:21:38;;;;;;;1.50;1.05;;;;;;;;;;5046723;28;20055;-61
2023/06/26 11:24:07;;;;;;;3.42;0.98;;;;;;;;;;5045703;28;20057;-61
2023/06/26 11:26:40;;;;;;;2.08;0.93;;;;;;;;;;5046333;28;20138;-61
2023/06/26 11:29:06;;;;;;;1.95;1.05;;;;;;;;;;5046469;28;20048;-61
2023/06/26 11:31:32;;;;;;;2.50;1.00;;;;;;;;;;5045802;28;20117;-61
2023/06/26 11:34:03;;;;;;;1.98;0.93;;;;;;;;;;5046561;28;20056;-61
2023/06/26 11:36:29;;;;;;;2.72;1.08;;;;;;;;;;5046296;28;20037;-61
2023/06/26 11:38:59;;;;;;;1.08;0.70;;;;;;;;;;5045574;28;20041;-61
2023/06/26 11:41:27;;;;;;;1.60;0.80;;;;;;;;;;5045990;28;20357;-61
2023/06/26 11:43:53;;;;;;;2.20;0.80;;;;;;;;;;5046175;28;20045;-61
2023/06/26 11:46:20;;;;;;;2.20;1.00;;;;;;;;;;5045743;28;20060;-61
2023/06/26 11:48:46;;;;;;;2.53;0.90;;;;;;;;;;5046445;28;20167;-61
2023/06/26 11:51:16;;;;;;;2.17;0.80;;;;;;;;;;5044878;28;20497;-61
2023/06/26 11:53:42;;;;;;;1.63;0.80;;;;;;;;;;5045789;28;20419;-61
2023/06/26 11:56:12;;;;;;;2.15;0.90;;;;;;;;;;5045405;28;20492;-61
2023/06/26 11:59:00;;;;;;;1.73;0.80;;;;;;;;;;5045320;28;20504;-61
2023/06/26 12:01:27;;;;;;;2.45;0.90;;;;;;;;;;5045528;28;20114;-61
2023/06/26 12:03:55;;;;;;;3.05;1.10;;;;;;;;;;5045725;28;20408;-61
2023/06/26 12:06:21;;;;;;;2.25;1.02;;;;;;;;;;5045356;28;20044;-61
2023/06/26 12:08:47;;;;;;;1.58;1.00;;;;;;;;;;5046225;28;20391;-61
2023/06/26 12:11:14;;;;;;;1.17;0.60;;;;;;;;;;5045161;28;20065;-61
2023/06/26 12:13:40;;;;;;;2.35;0.90;;;;;;;;;;5044618;28;20059;-61
2023/06/26 12:16:06;;;;;;;1.27;0.77;;;;;;;;;;5045716;28;20041;-61
2023/06/26 12:18:36;;;;;;;0.90;0.68;;;;;;;;;;5044017;28;20131;-61
2023/06/26 12:21:02;;;;;;;2.65;1.35;;;;;;;;;;5044860;28;20327;-61
2023/06/26 12:23:36;;;;;;;1.70;1.00;;;;;;;;;;5045272;28;20127;-61
2023/06/26 12:26:18;;;;;;;2.13;1.13;;;;;;;;;;5045505;28;20091;-61
2023/06/26 12:28:44;;;;;;;;;;;;;;;;;;5045572;28;20114;-61
2023/06/26 12:31:16;;;;;;;1.15;0.60;;;;;;;;;;5044720;28;19931;-61
2023/06/26 12:33:45;;;;;;;1.35;0.70;;;;;;;;;;5044646;28;20066;-61
2023/06/26 12:36:15;;;;;;;0.90;0.65;;;;;;;;;;5044654;28;20087;-61
2023/06/26 12:38:41;;;;;;;1.23;0.60;;;;;;;;;;5045330;28;20045;-61
2023/06/26 12:41:13;;;;;;;2.60;1.02;;;;;;;;;;5044206;28;20393;-61
2023/06/26 12:43:39;;;;;;;1.10;0.90;;;;;;;;;;5044695;28;20048;-61
2023/06/26 12:46:06;;;;;;;1.17;0.60;;;;;;;;;;5026959;28;20068;-61
2023/06/26 12:48:47;;;;;;;1.00;0.80;;;;;;;;;;5044417;28;20041;-61
2023/06/26 12:51:17;;;;;;;1.27;0.70;;;;;;;;;;5044916;28;20381;-61
2023/06/26 12:53:44;;;;;;;1.05;0.68;;;;;;;;;;5044857;28;20045;-61
2023/06/26 12:56:10;;;;;;;1.17;0.70;;;;;;;;;;5044251;28;20041;-61
2023/06/26 12:58:37;;;;;;;1.13;0.55;;;;;;;;;;5044790;28;20590;-61
2023/06/26 13:01:04;;;;;;;1.15;0.70;;;;;;;;;;5044706;28;20257;-61
2023/06/26 13:03:30;;;;;;;2.42;0.88;;;;;;;;;;5043759;28;20076;-61
2023/06/26 13:05:56;;;;;;;1.27;0.70;;;;;;;;;;5044640;28;20519;-61
2023/06/26 13:08:22;;;;;;;2.10;0.80;;;;;;;;;;5044811;28;20041;-61
2023/06/26 13:10:48;;;;;;;1.15;0.65;;;;;;;;;;5026108;28;20072;-61
2023/06/26 13:13:14;;;;;;;2.30;0.90;;;;;;;;;;5044223;28;20140;-61
2023/06/26 13:15:40;;;;;;;3.10;1.02;;;;;;;;;;5043597;28;20048;-61
2023/06/26 13:18:06;;;;;;;0.98;0.68;;;;;;;;;;5044418;28;20037;-61
2023/06/26 13:20:32;;;;;;;2.20;0.90;;;;;;;;;;5044314;28;20041;-61
2023/06/26 13:22:58;;;;;;;2.03;0.70;;;;;;;;;;5043487;28;20308;-61
2023/06/26 13:25:24;;;;;;;1.13;0.77;;;;;;;;;;5043674;28;20067;-61
2023/06/26 13:27:50;;;;;;;2.03;1.25;;;;;;;;;;5044959;28;20524;-61
2023/06/26 13:30:16;;;;;;;0.60;0.45;;;;;;;;;;5043379;28;20209;-61
2023/06/26 13:32:43;;;;;;;0.60;0.50;;;;;;;;;;5043801;28;20045;-61
2023/06/26 13:35:13;;;;;;;1.10;0.80;;;;;;;;;;5043558;28;20408;-61
2023/06/26 13:37:39;;;;;;;1.55;0.75;;;;;;;;;;5042999;28;20066;-61
2023/06/26 13:40:06;;;;;;;1.33;0.70;;;;;;;;;;5043603;28;20036;-61
2023/06/26 13:42:33;;;;;;;1.60;0.90;;;;;;;;;;5043848;28;20048;-61
2023/06/26 13:44:59;;;;;;;1.10;0.70;;;;;;;;;;5043532;28;20511;-61
2023/06/26 13:47:25;;;;;;;1.10;0.70;;;;;;;;;;5043514;28;20504;-61
2023/06/26 13:49:51;;;;;;;0.90;0.73;;;;;;;;;;5044483;28;20045;-61
2023/06/26 13:52:17;;;;;;;1.13;0.70;;;;;;;;;;5042870;28;20207;-61
2023/06/26 13:54:43;;;;;;;1.10;0.57;;;;;;;;;;5043839;28;20528;-61
2023/06/26 13:57:09;;;;;;;1.80;0.70;;;;;;;;;;5043491;28;20179;-61
2023/06/26 13:59:37;;;;;;;1.20;0.60;;;;;;;;;;5042778;28;20049;-61
2023/06/26 14:02:05;;;;;;;3.53;1.58;;;;;;;;;;5043485;28;20057;-61
2023/06/26 14:04:31;;;;;;;2.75;1.00;;;;;;;;;;5043213;28;20064;-61
2023/06/26 14:06:57;;;;;;;2.08;0.90;;;;;;;;;;5042891;28;20037;-61
2023/06/26 14:09:23;;;;;;;1.17;0.77;;;;;;;;;;5043751;28;20495;-61
2023/06/26 14:11:49;;;;;;;1.35;0.82;;;;;;;;;;5042975;28;20072;-61
2023/06/26 14:14:15;;;;;;;2.53;0.82;;;;;;;;;;5043045;28;20059;-61
2023/06/26 14:16:41;;;;;;;1.52;0.98;;;;;;;;;;5043115;28;20052;-60
2023/06/26 14:19:07;;;;;;;0.50;0.40;;;;;;;;;;5042350;28;20044;-61
2023/06/26 14:21:33;;;;;;;0.70;0.50;;;;;;;;;;5043084;28;20041;-61
2023/06/26 14:23:59;;;;;;;2.17;0.50;;;;;;;;;;5043187;28;20132;-61
2023/06/26 14:26:25;;;;;;;2.08;0.85;;;;;;;;;;5042142;28;20049;-61
2023/06/26 14:28:52;;;;;;;4.25;1.05;;;;;;;;;;5044156;28;20384;-61
2023/06/26 14:31:18;;;;;;;5.18;0.93;;;;;;;;;;5043497;28;20095;-61
2023/06/26 14:33:44;;;;;;;3.30;1.20;;;;;;;;;;5024358;28;20492;-61
2023/06/26 14:36:10;;;;;;;3.13;1.10;;;;;;;;;;5042789;28;20128;-61
2023/06/26 14:38:36;;;;;;;1.40;0.68;;;;;;;;;;5043144;28;20190;-61
2023/06/26 14:41:02;;;;;;;2.28;1.10;;;;;;;;;;5042507;28;20120;-61
2023/06/26 14:43:28;;;;;;;1.55;1.00;;;;;;;;;;5042492;28;20041;-61